KSTL/STL METAR and TAF weather

Enter ICAO airport designator
Station Type Date Time Source
KSTL METAR 2020/11/27 02:51 UTC NOAA

KSTL 270251Z 12006KT 10SM BKN250 06/03 A3007 RMK AO2 SLP186 T00560033 53000


Station Type Date Time Source
KSTL Decoded METAR 2020/11/27 02:51 UTC NOAA

LAMBERT-ST LOUIS INTERNATIONAL AIRPORT , MO, United States (KSTL) 38-45N 90-22W 171M
Nov 26, 2020 - 09:51 PM EST / 2020.11.27 0251 UTC
Wind: from the ESE (120 degrees) at 7 MPH (6 KT):0
Visibility: 10 mile(s):0
Sky conditions: mostly cloudy
Temperature: 42.1 F (5.6 C)
Dew Point: 37.9 F (3.3 C)
Relative Humidity: 85%
Pressure (altimeter): 30.07 in. Hg (1018 hPa)
Pressure tendency: 0.00 inches (0.0 hPa) higher than three hours ago
ob: KSTL 270251Z 12006KT 10SM BKN250 06/03 A3007 RMK AO2 SLP186 T00560033 53000
cycle: 3

Station Type Date Time Source
KSTL TAF 2020/11/27 03:57 UTC NOAA

TAF
AMD KSTL 270257Z 2703/2806 14004KT P6SM BKN250
FM271200 21003KT 6SM BR BKN035
FM271500 32008KT P6SM SCT020 BKN035
FM271900 32009KT P6SM FEW250

Example: see airport list